| time (UTC) | temp C | wind direction | speed KPH | gust KPH | rain 1hr cm | rain 24hr cm | rain mn cm | humidity % | barometer mb |
| 20260831115427 | 26 | 198 | 3.2 | 6.4 | 0.00 | 0.00 | 0.00 | 57 | 1017.1 |
| 20260831114927 | 26 | 180 | 6.4 | 9.7 | 0.00 | 0.00 | 0.00 | 57 | 1016.7 |
| 20260831114426 | 26 | 187 | 6.4 | 11.3 | 0.00 | 0.00 | 0.00 | 57 | 1016.8 |
| 20260831113922 | 26 | 154 | 6.4 | 9.7 | 0.00 | 0.00 | 0.00 | 57 | 1016.8 |
| 20260831113422 | 26 | 153 | 3.2 | 3.2 | 0.00 | 0.00 | 0.00 | 56 | 1016.6 |
| 20260831112917 | 26 | 167 | 4.8 | 6.4 | 0.00 | 0.00 | 0.00 | 56 | 1016.5 |
| 20260831112417 | 26 | 282 | 3.2 | 3.2 | 0.00 | 0.00 | 0.00 | 56 | 1016.7 |
| 20260831111912 | 26 | 236 | 3.2 | 4.8 | 0.00 | 0.00 | 0.00 | 56 | 1016.6 |
| 20260831111408 | 26 | 45 | 4.8 | 6.4 | 0.00 | 0.00 | 0.00 | 56 | 1016.5 |
| 20260831110904 | 26 | 52 | 3.2 | 4.8 | 0.00 | 0.00 | 0.00 | 55 | 1016.4 |
| 20260831110403 | 26 | 156 | 4.8 | 4.8 | 0.00 | 0.00 | 0.00 | 55 | 1016.6 |
| 20260831105902 | 26 | 70 | 1.6 | 3.2 | 0.00 | 0.00 | 0.00 | 55 | 1016.5 |
| 20260831105358 | 26 | 183 | 6.4 | 6.4 | 0.00 | 0.00 | 0.00 | 55 | 1016.2 |
| 20260831104853 | 26 | 182 | 9.7 | 12.9 | 0.00 | 0.00 | 0.00 | 55 | 1016.4 |
| 20260831104349 | 26 | 121 | 6.4 | 9.7 | 0.00 | 0.00 | 0.00 | 55 | 1016.2 |
| 20260831103844 | 26 | 208 | 6.4 | 6.4 | 0.00 | 0.00 | 0.00 | 55 | 1016.3 |
| 20260831103339 | 26 | 138 | 6.4 | 9.7 | 0.00 | 0.00 | 0.00 | 55 | 1016.3 |
| 20260831102834 | 26 | 189 | 4.8 | 6.4 | 0.00 | 0.00 | 0.00 | 54 | 1016.4 |
| 20260831102329 | 26 | 142 | 1.6 | 3.2 | 0.00 | 0.00 | 0.00 | 54 | 1016.3 |
| 20260831101825 | 26 | 74 | 3.2 | 3.2 | 0.00 | 0.00 | 0.00 | 54 | 1016.3 |
| 20260831101320 | 26 | 186 | 8.0 | 11.3 | 0.00 | 0.00 | 0.00 | 54 | 1016.1 |
| 20260831100816 | 26 | 162 | 8.0 | 12.9 | 0.00 | 0.00 | 0.00 | 53 | 1016.2 |
| 20260831100312 | 26 | 331 | 3.2 | 4.8 | 0.00 | 0.00 | 0.00 | 53 | 1016.3 |
| 20260831095811 | 26 | 199 | 1.6 | 3.2 | 0.00 | 0.00 | 0.00 | 53 | 1016.1 |
| 20260831095306 | 26 | 202 | 9.7 | 12.9 | 0.00 | 0.00 | 0.00 | 52 | 1016.0 |
| 20260831094801 | 26 | 231 | 4.8 | 6.4 | 0.00 | 0.00 | 0.00 | 52 | 1016.1 |
| 20260831094256 | 27 | 108 | 3.2 | 3.2 | 0.00 | 0.00 | 0.00 | 52 | 1015.9 |
| 20260831093752 | 27 | 95 | 4.8 | 4.8 | 0.00 | 0.00 | 0.00 | 52 | 1016.0 |
| 20260831093252 | 27 | 146 | 6.4 | 6.4 | 0.00 | 0.00 | 0.00 | 51 | 1016.0 |
| 20260831092749 | 27 | 178 | 3.2 | 3.2 | 0.00 | 0.00 | 0.00 | 51 | 1016.0 |
| 20260831092244 | 27 | 81 | 4.8 | 6.4 | 0.00 | 0.00 | 0.00 | 51 | 1016.0 |
| 20260831091743 | 27 | 28 | 3.2 | 3.2 | 0.00 | 0.00 | 0.00 | 50 | 1016.0 |
| 20260831091240 | 27 | 179 | 9.7 | 12.9 | 0.00 | 0.00 | 0.00 | 50 | 1016.0 |
| 20260831090735 | 27 | 131 | 3.2 | 4.8 | 0.00 | 0.00 | 0.00 | 50 | 1016.0 |
| 20260831090231 | 27 | 117 | 3.2 | 4.8 | 0.00 | 0.00 | 0.00 | 50 | 1015.9 |
| 20260831085727 | 27 | 127 | 3.2 | 3.2 | 0.00 | 0.00 | 0.00 | 49 | 1015.8 |
| 20260831085221 | 27 | 174 | 3.2 | 4.8 | 0.00 | 0.00 | 0.00 | 49 | 1015.9 |
| 20260831084716 | 27 | 68 | 4.8 | 6.4 | 0.00 | 0.00 | 0.00 | 49 | 1015.9 |
| 20260831084213 | 27 | 85 | 6.4 | 11.3 | 0.00 | 0.00 | 0.00 | 48 | 1015.6 |
| 20260831083708 | 27 | 243 | 6.4 | 9.7 | 0.00 | 0.00 | 0.00 | 48 | 1015.7 |
| 20260831083204 | 27 | 158 | 6.4 | 6.4 | 0.00 | 0.00 | 0.00 | 48 | 1016.0 |
| 20260831082702 | 27 | 249 | 4.8 | 4.8 | 0.00 | 0.00 | 0.00 | 48 | 1015.8 |
| 20260831082158 | 27 | 99 | 6.4 | 9.7 | 0.00 | 0.00 | 0.00 | 47 | 1015.6 |
| 20260831081653 | 27 | 201 | 3.2 | 4.8 | 0.00 | 0.00 | 0.00 | 47 | 1015.8 |
| 20260831081149 | 27 | 135 | 6.4 | 12.9 | 0.00 | 0.00 | 0.00 | 47 | 1015.6 |
| 20260831080644 | 28 | 153 | 6.4 | 9.7 | 0.00 | 0.00 | 0.00 | 47 | 1015.5 |
| 20260831080139 | 28 | 134 | 4.8 | 6.4 | 0.00 | 0.00 | 0.00 | 47 | 1015.5 |
| 20260831075635 | 28 | 96 | 3.2 | 4.8 | 0.00 | 0.00 | 0.00 | 47 | 1015.6 |
| 20260831075130 | 28 | 261 | 4.8 | 6.4 | 0.00 | 0.00 | 0.00 | 47 | 1015.5 |
| 20260831074629 | 28 | 164 | 4.8 | 4.8 | 0.00 | 0.00 | 0.00 | 48 | 1015.5 |
| 20260831074124 | 28 | 283 | 3.2 | 3.2 | 0.00 | 0.00 | 0.00 | 48 | 1015.4 |
| 20260831073624 | 28 | 165 | 12.9 | 14.5 | 0.00 | 0.00 | 0.00 | 48 | 1015.5 |
| 20260831073124 | 27 | 147 | 8.0 | 9.7 | 0.00 | 0.00 | 0.00 | 48 | 1015.5 |
| 20260831072620 | 27 | 238 | 4.8 | 4.8 | 0.00 | 0.00 | 0.00 | 49 | 1015.5 |
| 20260831072116 | 28 | 125 | 3.2 | 4.8 | 0.00 | 0.00 | 0.00 | 49 | 1015.4 |
| 20260831071614 | 28 | 168 | 8.0 | 12.9 | 0.00 | 0.00 | 0.00 | 49 | 1015.4 |
| 20260831071110 | 28 | 156 | 9.7 | 11.3 | 0.00 | 0.00 | 0.00 | 48 | 1015.4 |
| 20260831070609 | 28 | 147 | 12.9 | 16.1 | 0.00 | 0.00 | 0.00 | 48 | 1015.3 |
| 20260831070104 | 28 | 166 | 6.4 | 11.3 | 0.00 | 0.00 | 0.00 | 48 | 1015.4 |
| 20260831065602 | 28 | 90 | 3.2 | 4.8 | 0.00 | 0.00 | 0.00 | 49 | 1015.6 |
| 20260831065056 | 28 | 207 | 3.2 | 6.4 | 0.00 | 0.00 | 0.00 | 49 | 1015.6 |
| 20260831064551 | 28 | 130 | 6.4 | 9.7 | 0.00 | 0.00 | 0.00 | 49 | 1015.6 |
| 20260831064047 | 28 | 172 | 8.0 | 9.7 | 0.00 | 0.00 | 0.00 | 49 | 1015.5 |
| 20260831063542 | 28 | 135 | 4.8 | 9.7 | 0.00 | 0.00 | 0.00 | 49 | 1015.4 |
| 20260831063037 | 28 | 107 | 9.7 | 11.3 | 0.00 | 0.00 | 0.00 | 49 | 1015.4 |
| 20260831062532 | 28 | 177 | 9.7 | 12.9 | 0.00 | 0.00 | 0.00 | 50 | 1015.4 |
| 20260831062031 | 28 | 135 | 11.3 | 16.1 | 0.00 | 0.00 | 0.00 | 50 | 1015.4 |
| 20260831061524 | 28 | 183 | 8.0 | 11.3 | 0.00 | 0.00 | 0.00 | 50 | 1015.5 |
| 20260831061020 | 28 | 126 | 3.2 | 3.2 | 0.00 | 0.00 | 0.00 | 50 | 1015.5 |
| 20260831060520 | 28 | 153 | 9.7 | 11.3 | 0.00 | 0.00 | 0.00 | 50 | 1015.4 |
| 20260831060016 | 28 | 131 | 3.2 | 4.8 | 0.00 | 0.00 | 0.00 | 50 | 1015.6 |
| 20260831055509 | 28 | 108 | 3.2 | 4.8 | 0.00 | 0.00 | 0.00 | 50 | 1015.7 |
| 20260831055005 | 28 | 136 | 6.4 | 9.7 | 0.00 | 0.00 | 0.00 | 50 | 1015.5 |
| 20260831054459 | 28 | 107 | 8.0 | 14.5 | 0.00 | 0.00 | 0.00 | 50 | 1015.7 |
| 20260831053958 | 28 | 104 | 6.4 | 6.4 | 0.00 | 0.00 | 0.00 | 50 | 1015.6 |
| 20260831053456 | 28 | 145 | 8.0 | 9.7 | 0.00 | 0.00 | 0.00 | 50 | 1015.6 |
| 20260831052952 | 28 | 178 | 3.2 | 4.8 | 0.00 | 0.00 | 0.00 | 49 | 1015.6 |
| 20260831052451 | 28 | 68 | 6.4 | 9.7 | 0.00 | 0.00 | 0.00 | 49 | 1015.7 |
| 20260831051949 | 28 | 199 | 6.4 | 9.7 | 0.00 | 0.00 | 0.00 | 49 | 1015.6 |
| 20260831051448 | 28 | 122 | 6.4 | 11.3 | 0.00 | 0.00 | 0.00 | 48 | 1015.5 |
| 20260831050943 | 28 | 124 | 4.8 | 6.4 | 0.00 | 0.00 | 0.00 | 48 | 1015.6 |
| 20260831050443 | 28 | 75 | 3.2 | 4.8 | 0.00 | 0.00 | 0.00 | 48 | 1015.4 |
| 20260831045941 | 28 | 198 | 9.7 | 12.9 | 0.00 | 0.00 | 0.00 | 48 | 1015.4 |
| 20260831045441 | 29 | 166 | 9.7 | 12.9 | 0.00 | 0.00 | 0.00 | 47 | 1015.5 |
| 20260831044936 | 29 | 146 | 6.4 | 6.4 | 0.00 | 0.00 | 0.00 | 47 | 1015.6 |
| 20260831044431 | 29 | 58 | 6.4 | 11.3 | 0.00 | 0.00 | 0.00 | 46 | 1015.2 |
| 20260831043927 | 29 | 103 | 4.8 | 4.8 | 0.00 | 0.00 | 0.00 | 46 | 1015.3 |
| 20260831043426 | 30 | 204 | 6.4 | 6.4 | 0.00 | 0.00 | 0.00 | 45 | 1015.3 |
| 20260831042922 | 30 | 166 | 6.4 | 6.4 | 0.00 | 0.00 | 0.00 | 45 | 1015.3 |
| 20260831042421 | 30 | 138 | 8.0 | 11.3 | 0.00 | 0.00 | 0.00 | 44 | 1015.3 |
| 20260831041916 | 30 | 105 | 6.4 | 9.7 | 0.00 | 0.00 | 0.00 | 44 | 1015.2 |
| 20260831041416 | 30 | 144 | 3.2 | 4.8 | 0.00 | 0.00 | 0.00 | 43 | 1015.3 |
| 20260831040912 | 30 | 201 | 9.7 | 11.3 | 0.00 | 0.00 | 0.00 | 43 | 1015.2 |
| 20260831040412 | 30 | 50 | 3.2 | 4.8 | 0.00 | 0.00 | 0.00 | 42 | 1015.2 |
| 20260831035909 | 30 | 138 | 4.8 | 4.8 | 0.00 | 0.00 | 0.00 | 42 | 1015.1 |
| 20260831035409 | 30 | 116 | 9.7 | 11.3 | 0.00 | 0.00 | 0.00 | 42 | 1015.2 |
| 20260831034908 | 30 | 37 | 1.6 | 3.2 | 0.00 | 0.00 | 0.00 | 42 | 1015.1 |
| 20260831034404 | 30 | 63 | 1.6 | 1.6 | 0.00 | 0.00 | 0.00 | 42 | 1015.1 |
| 20260831033859 | 30 | 136 | 4.8 | 6.4 | 0.00 | 0.00 | 0.00 | 42 | 1015.0 |
| 20260831033354 | 30 | 19 | 0.0 | 0.0 | 0.00 | 0.00 | 0.00 | 42 | 1014.7 |
| 20260831032850 | 30 | 36 | 1.6 | 1.6 | 0.00 | 0.00 | 0.00 | 42 | 1015.0 |
| 20260831032349 | 30 | 187 | 3.2 | 6.4 | 0.00 | 0.00 | 0.00 | 42 | 1014.9 |
| 20260831031845 | 31 | 54 | 3.2 | 4.8 | 0.00 | 0.00 | 0.00 | 42 | 1014.6 |
| 20260831031344 | 31 | 28 | 1.6 | 1.6 | 0.00 | 0.00 | 0.00 | 41 | 1014.8 |
| 20260831030839 | 31 | 146 | 3.2 | 3.2 | 0.00 | 0.00 | 0.00 | 41 | 1014.7 |
| 20260831030338 | 31 | 22 | 0.0 | 1.6 | 0.00 | 0.00 | 0.00 | 41 | 1014.9 |
| 20260831025837 | 31 | 91 | 3.2 | 3.2 | 0.00 | 0.00 | 0.00 | 40 | 1014.7 |
| 20260831025332 | 31 | 188 | 3.2 | 4.8 | 0.00 | 0.00 | 0.00 | 40 | 1014.7 |
| 20260831024827 | 31 | 32 | 1.6 | 1.6 | 0.00 | 0.00 | 0.00 | 40 | 1014.7 |
| 20260831024326 | 31 | 44 | 1.6 | 3.2 | 0.00 | 0.00 | 0.00 | 40 | 1014.6 |
| 20260831023825 | 31 | 28 | 1.6 | 3.2 | 0.00 | 0.00 | 0.00 | 40 | 1014.5 |
| 20260831023324 | 31 | 46 | 1.6 | 3.2 | 0.00 | 0.00 | 0.00 | 40 | 1014.4 |
| 20260831022820 | 32 | 47 | 1.6 | 1.6 | 0.00 | 0.00 | 0.00 | 40 | 1014.1 |
| 20260831022319 | 32 | 38 | 1.6 | 1.6 | 0.00 | 0.00 | 0.00 | 40 | 1014.4 |
| 20260831021814 | 32 | 127 | 3.2 | 6.4 | 0.00 | 0.00 | 0.00 | 39 | 1014.4 |
| 20260831021313 | 32 | 120 | 3.2 | 4.8 | 0.00 | 0.00 | 0.00 | 39 | 1014.2 |
| 20260831020809 | 32 | 81 | 1.6 | 3.2 | 0.00 | 0.00 | 0.00 | 39 | 1014.1 |
| 20260831020308 | 32 | 31 | 3.2 | 4.8 | 0.00 | 0.00 | 0.00 | 39 | 1014.2 |
| 20260831015804 | 32 | 345 | 0.0 | 1.6 | 0.00 | 0.00 | 0.00 | 39 | 1014.1 |
| 20260831015300 | 32 | 64 | 1.6 | 1.6 | 0.00 | 0.00 | 0.00 | 39 | 1014.0 |
| 20260831014759 | 32 | 198 | 6.4 | 9.7 | 0.00 | 0.00 | 0.00 | 39 | 1013.9 |
| 20260831014254 | 32 | 45 | 1.6 | 1.6 | 0.00 | 0.00 | 0.00 | 39 | 1013.9 |
| 20260831013751 | 32 | 15 | 0.0 | 0.0 | 0.00 | 0.00 | 0.00 | 39 | 1013.8 |
| 20260831013250 | 32 | 12 | 0.0 | 1.6 | 0.00 | 0.00 | 0.00 | 39 | 1013.7 |
| 20260831012745 | 33 | 19 | 0.0 | 0.0 | 0.00 | 0.00 | 0.00 | 38 | 1013.9 |
| 20260831012240 | 33 | 38 | 1.6 | 1.6 | 0.00 | 0.00 | 0.00 | 37 | 1013.9 |
| 20260831011739 | 33 | 327 | 1.6 | 1.6 | 0.00 | 0.00 | 0.00 | 37 | 1013.7 |
| 20260831011235 | 33 | 42 | 1.6 | 1.6 | 0.00 | 0.00 | 0.00 | 37 | 1014.0 |
| 20260831010731 | 33 | 46 | 3.2 | 3.2 | 0.00 | 0.00 | 0.00 | 36 | 1013.6 |
| 20260831010231 | 34 | 148 | 4.8 | 6.4 | 0.00 | 0.00 | 0.00 | 36 | 1013.9 |
| 20260831005726 | 34 | 46 | 3.2 | 4.8 | 0.00 | 0.00 | 0.00 | 35 | 1013.8 |
| 20260831005221 | 35 | 188 | 3.2 | 6.4 | 0.00 | 0.00 | 0.00 | 35 | 1013.7 |
| 20260831004717 | 35 | 308 | 1.6 | 3.2 | 0.00 | 0.00 | 0.00 | 34 | 1013.8 |
| 20260831004213 | 35 | 170 | 3.2 | 3.2 | 0.00 | 0.00 | 0.00 | 34 | 1013.9 |
| 20260831003708 | 35 | 66 | 1.6 | 3.2 | 0.00 | 0.00 | 0.00 | 34 | 1013.8 |
| 20260831003205 | 35 | 76 | 4.8 | 6.4 | 0.00 | 0.00 | 0.00 | 33 | 1013.8 |
| 20260831002703 | 35 | 214 | 6.4 | 11.3 | 0.00 | 0.00 | 0.00 | 33 | 1013.7 |
| 20260831002158 | 36 | 94 | 6.4 | 9.7 | 0.00 | 0.00 | 0.00 | 32 | 1013.8 |
| 20260831001654 | 36 | 125 | 6.4 | 9.7 | 0.00 | 0.00 | 0.00 | 32 | 1013.7 |
| 20260831001149 | 36 | 74 | 4.8 | 4.8 | 0.00 | 0.00 | 0.00 | 32 | 1013.7 |
| 20260831000646 | 36 | 161 | 8.0 | 11.3 | 0.00 | 0.00 | 0.00 | 32 | 1013.6 |
| 20260831000146 | 36 | 107 | 9.7 | 11.3 | 0.00 | 0.00 | 0.00 | 31 | 1013.8 |
| 20260830235644 | 36 | 157 | 8.0 | 9.7 | 0.00 | 0.00 | 0.00 | 31 | 1013.9 |
| 20260830235140 | 36 | 156 | 4.8 | 4.8 | 0.00 | 0.00 | 0.00 | 31 | 1013.6 |
| 20260830234635 | 36 | 133 | 6.4 | 6.4 | 0.00 | 0.00 | 0.00 | 31 | 1013.7 |
| 20260830234130 | 37 | 167 | 8.0 | 11.3 | 0.00 | 0.00 | 0.00 | 30 | 1013.8 |
| 20260830233626 | 37 | 184 | 11.3 | 16.1 | 0.00 | 0.00 | 0.00 | 31 | 1013.7 |
| 20260830233121 | 37 | 142 | 6.4 | 9.7 | 0.00 | 0.00 | 0.00 | 30 | 1013.7 |
| 20260830232617 | 37 | 186 | 8.0 | 9.7 | 0.00 | 0.00 | 0.00 | 30 | 1013.7 |
| 20260830232113 | 37 | 223 | 9.7 | 14.5 | 0.00 | 0.00 | 0.00 | 29 | 1013.8 |
| 20260830231608 | 37 | 169 | 6.4 | 6.4 | 0.00 | 0.00 | 0.00 | 29 | 1013.7 |
| 20260830231108 | 37 | 156 | 14.5 | 17.7 | 0.00 | 0.00 | 0.00 | 29 | 1013.8 |
| 20260830230603 | 37 | 151 | 6.4 | 9.7 | 0.00 | 0.00 | 0.00 | 28 | 1013.7 |
| 20260830230058 | 38 | 196 | 6.4 | 6.4 | 0.00 | 0.00 | 0.00 | 29 | 1014.0 |
| 20260830225553 | 37 | 125 | 3.2 | 4.8 | 0.00 | 0.00 | 0.00 | 30 | 1013.7 |
| 20260830225053 | 37 | 227 | 14.5 | 20.9 | 0.00 | 0.00 | 0.00 | 30 | 1013.6 |
| 20260830224551 | 37 | 180 | 8.0 | 12.9 | 0.00 | 0.00 | 0.00 | 30 | 1013.6 |
| 20260830224049 | 37 | 200 | 4.8 | 4.8 | 0.00 | 0.00 | 0.00 | 31 | 1013.6 |
| 20260830223546 | 37 | 213 | 9.7 | 12.9 | 0.00 | 0.00 | 0.00 | 31 | 1013.7 |
| 20260830223045 | 37 | 169 | 6.4 | 11.3 | 0.00 | 0.00 | 0.00 | 30 | 1013.8 |
| 20260830222539 | 37 | 137 | 6.4 | 11.3 | 0.00 | 0.00 | 0.00 | 30 | 1013.7 |
| 20260830222036 | 38 | 90 | 8.0 | 14.5 | 0.00 | 0.00 | 0.00 | 29 | 1013.9 |
| 20260830221531 | 38 | 177 | 11.3 | 14.5 | 0.00 | 0.00 | 0.00 | 29 | 1013.7 |
| 20260830221027 | 38 | 134 | 4.8 | 4.8 | 0.00 | 0.00 | 0.00 | 30 | 1013.7 |
| 20260830220527 | 38 | 222 | 8.0 | 11.3 | 0.00 | 0.00 | 0.00 | 30 | 1013.8 |
| 20260830220025 | 38 | 192 | 9.7 | 12.9 | 0.00 | 0.00 | 0.00 | 30 | 1013.9 |
| 20260830215520 | 38 | 162 | 6.4 | 6.4 | 0.00 | 0.00 | 0.00 | 30 | 1013.9 |
| 20260830215014 | 38 | 296 | 3.2 | 3.2 | 0.00 | 0.00 | 0.00 | 30 | 1013.8 |
| 20260830214509 | 38 | 229 | 12.9 | 22.5 | 0.00 | 0.00 | 0.00 | 29 | 1014.0 |
| 20260830214004 | 38 | 153 | 3.2 | 6.4 | 0.00 | 0.00 | 0.00 | 30 | 1013.9 |
| 20260830213458 | 38 | 28 | 1.6 | 1.6 | 0.00 | 0.00 | 0.00 | 30 | 1014.0 |
| 20260830212954 | 38 | 195 | 3.2 | 4.8 | 0.00 | 0.00 | 0.00 | 29 | 1014.0 |
| 20260830212449 | 38 | 215 | 6.4 | 9.7 | 0.00 | 0.00 | 0.00 | 29 | 1013.9 |
| 20260830211949 | 38 | 189 | 6.4 | 6.4 | 0.00 | 0.00 | 0.00 | 29 | 1014.4 |
| 20260830211444 | 37 | 204 | 11.3 | 12.9 | 0.00 | 0.00 | 0.00 | 29 | 1013.9 |
| 20260830210939 | 38 | 164 | 14.5 | 16.1 | 0.00 | 0.00 | 0.00 | 28 | 1014.4 |
| 20260830210439 | 38 | 218 | 12.9 | 14.5 | 0.00 | 0.00 | 0.00 | 29 | 1014.2 |
| 20260830205937 | 38 | 135 | 9.7 | 14.5 | 0.00 | 0.00 | 0.00 | 27 | 1014.4 |
| 20260830205436 | 38 | 96 | 6.4 | 6.4 | 0.00 | 0.00 | 0.00 | 28 | 1014.6 |
| 20260830204931 | 38 | 204 | 12.9 | 14.5 | 0.00 | 0.00 | 0.00 | 27 | 1014.4 |
| 20260830204431 | 38 | 172 | 9.7 | 14.5 | 0.00 | 0.00 | 0.00 | 28 | 1014.5 |
| 20260830203925 | 38 | 166 | 4.8 | 4.8 | 0.00 | 0.00 | 0.00 | 29 | 1014.6 |
| 20260830203422 | 37 | 159 | 12.9 | 22.5 | 0.00 | 0.00 | 0.00 | 30 | 1014.6 |
| 20260830202921 | 37 | 219 | 9.7 | 11.3 | 0.00 | 0.00 | 0.00 | 29 | 1014.6 |
| 20260830202417 | 37 | 251 | 9.7 | 11.3 | 0.00 | 0.00 | 0.00 | 29 | 1014.8 |
| 20260830201913 | 38 | 189 | 14.5 | 16.1 | 0.00 | 0.00 | 0.00 | 29 | 1014.8 |
| 20260830201412 | 38 | 144 | 8.0 | 9.7 | 0.00 | 0.00 | 0.00 | 30 | 1014.9 |
| 20260830200908 | 38 | 199 | 9.7 | 16.1 | 0.00 | 0.00 | 0.00 | 31 | 1014.9 |
| 20260830200408 | 38 | 231 | 4.8 | 6.4 | 0.00 | 0.00 | 0.00 | 31 | 1014.9 |
| 20260830195903 | 37 | 68 | 11.3 | 16.1 | 0.00 | 0.00 | 0.00 | 32 | 1014.9 |
| 20260830195402 | 37 | 216 | 3.2 | 4.8 | 0.00 | 0.00 | 0.00 | 32 | 1015.1 |
| 20260830194901 | 38 | 210 | 4.8 | 9.7 | 0.00 | 0.00 | 0.00 | 30 | 1015.1 |
| 20260830194400 | 38 | 340 | 1.6 | 1.6 | 0.00 | 0.00 | 0.00 | 32 | 1015.1 |
| 20260830193855 | 38 | 116 | 6.4 | 9.7 | 0.00 | 0.00 | 0.00 | 32 | 1015.2 |
| 20260830193354 | 37 | 210 | 4.8 | 6.4 | 0.00 | 0.00 | 0.00 | 32 | 1015.1 |
| 20260830192850 | 38 | 194 | 3.2 | 6.4 | 0.00 | 0.00 | 0.00 | 32 | 1015.3 |
| 20260830192350 | 37 | 234 | 4.8 | 6.4 | 0.00 | 0.00 | 0.00 | 32 | 1015.1 |
| 20260830191846 | 37 | 167 | 9.7 | 11.3 | 0.00 | 0.00 | 0.00 | 33 | 1015.3 |
| 20260830191345 | 37 | 269 | 4.8 | 6.4 | 0.00 | 0.00 | 0.00 | 33 | 1015.4 |
| 20260830190841 | 37 | 255 | 6.4 | 11.3 | 0.00 | 0.00 | 0.00 | 32 | 1015.2 |
| 20260830190336 | 36 | 215 | 6.4 | 9.7 | 0.00 | 0.00 | 0.00 | 34 | 1015.5 |
| 20260830185834 | 36 | 243 | 6.4 | 11.3 | 0.00 | 0.00 | 0.00 | 34 | 1015.4 |
| 20260830185330 | 37 | 160 | 14.5 | 20.9 | 0.00 | 0.00 | 0.00 | 34 | 1015.5 |
| 20260830184825 | 37 | 262 | 6.4 | 9.7 | 0.00 | 0.00 | 0.00 | 34 | 1015.6 |
| 20260830184324 | 36 | 231 | 3.2 | 3.2 | 0.00 | 0.00 | 0.00 | 35 | 1015.6 |
| 20260830183813 | 36 | 0 | 3.2 | 4.8 | 0.00 | 0.00 | 0.00 | 36 | 1015.7 |
| 20260830183313 | 36 | 213 | 8.0 | 12.9 | 0.00 | 0.00 | 0.00 | 35 | 1015.8 |
| 20260830182808 | 36 | 215 | 12.9 | 20.9 | 0.00 | 0.00 | 0.00 | 35 | 1016.0 |
| 20260830182306 | 36 | 49 | 4.8 | 9.7 | 0.00 | 0.00 | 0.00 | 36 | 1015.9 |
| 20260830181800 | 36 | 241 | 11.3 | 17.7 | 0.00 | 0.00 | 0.00 | 35 | 1016.1 |
| 20260830181255 | 36 | 237 | 9.7 | 12.9 | 0.00 | 0.00 | 0.00 | 35 | 1016.0 |
| 20260830180754 | 36 | 286 | 6.4 | 6.4 | 0.00 | 0.00 | 0.00 | 35 | 1015.8 |
| 20260830180250 | 35 | 216 | 6.4 | 11.3 | 0.00 | 0.00 | 0.00 | 35 | 1016.1 |
| 20260830175743 | 36 | 9 | 9.7 | 12.9 | 0.00 | 0.00 | 0.00 | 36 | 1016.4 |
| 20260830175238 | 35 | 5 | 4.8 | 4.8 | 0.00 | 0.00 | 0.00 | 36 | 1016.0 |
| 20260830174733 | 35 | 193 | 6.4 | 9.7 | 0.00 | 0.00 | 0.00 | 36 | 1016.4 |
| 20260830174229 | 35 | 256 | 9.7 | 11.3 | 0.00 | 0.00 | 0.00 | 36 | 1016.4 |
| 20260830173728 | 35 | 213 | 12.9 | 20.9 | 0.00 | 0.00 | 0.00 | 35 | 1016.5 |
| 20260830173224 | 35 | 280 | 9.7 | 16.1 | 0.00 | 0.00 | 0.00 | 36 | 1016.4 |
| 20260830172720 | 35 | 182 | 17.7 | 27.4 | 0.00 | 0.00 | 0.00 | 36 | 1016.6 |
| 20260830172217 | 35 | 348 | 6.4 | 9.7 | 0.00 | 0.00 | 0.00 | 36 | 1016.6 |
| 20260830171712 | 35 | 356 | 9.7 | 12.9 | 0.00 | 0.00 | 0.00 | 36 | 1016.7 |
| 20260830171207 | 34 | 226 | 9.7 | 12.9 | 0.00 | 0.00 | 0.00 | 36 | 1016.9 |
| 20260830170702 | 35 | 144 | 9.7 | 12.9 | 0.00 | 0.00 | 0.00 | 37 | 1016.9 |
| 20260830170201 | 35 | 143 | 14.5 | 20.9 | 0.00 | 0.00 | 0.00 | 36 | 1017.0 |
| 20260830165700 | 35 | 210 | 6.4 | 9.7 | 0.00 | 0.00 | 0.00 | 36 | 1016.9 |
| 20260830165157 | 35 | 174 | 11.3 | 14.5 | 0.00 | 0.00 | 0.00 | 36 | 1017.1 |
| 20260830164653 | 34 | 204 | 8.0 | 11.3 | 0.00 | 0.00 | 0.00 | 37 | 1017.0 |
| 20260830164149 | 33 | 241 | 6.4 | 9.7 | 0.00 | 0.00 | 0.00 | 38 | 1017.3 |
| 20260830163645 | 33 | 213 | 19.3 | 30.6 | 0.00 | 0.00 | 0.00 | 37 | 1017.1 |
| 20260830163145 | 33 | 200 | 11.3 | 12.9 | 0.00 | 0.00 | 0.00 | 37 | 1017.3 |
| 20260830162640 | 33 | 199 | 11.3 | 17.7 | 0.00 | 0.00 | 0.00 | 38 | 1017.1 |
| 20260830162136 | 33 | 178 | 17.7 | 27.4 | 0.00 | 0.00 | 0.00 | 38 | 1016.9 |
| 20260830161631 | 33 | 205 | 12.9 | 14.5 | 0.00 | 0.00 | 0.00 | 38 | 1017.1 |
| 20260830161125 | 32 | 253 | 9.7 | 12.9 | 0.00 | 0.00 | 0.00 | 39 | 1017.0 |
| 20260830160621 | 33 | 189 | 16.1 | 20.9 | 0.00 | 0.00 | 0.00 | 38 | 1017.1 |
| 20260830160116 | 32 | 199 | 4.8 | 6.4 | 0.00 | 0.00 | 0.00 | 39 | 1016.9 |
| 20260830155612 | 32 | 333 | 8.0 | 11.3 | 0.00 | 0.00 | 0.00 | 40 | 1016.9 |
| 20260830155108 | 32 | 226 | 11.3 | 14.5 | 0.00 | 0.00 | 0.00 | 40 | 1017.0 |
| 20260830154603 | 31 | 117 | 8.0 | 11.3 | 0.00 | 0.00 | 0.00 | 41 | 1017.2 |
| 20260830154059 | 32 | 223 | 11.3 | 14.5 | 0.00 | 0.00 | 0.00 | 40 | 1017.0 |
| 20260830153555 | 32 | 193 | 14.5 | 17.7 | 0.00 | 0.00 | 0.00 | 41 | 1017.0 |
| 20260830153054 | 31 | 224 | 8.0 | 17.7 | 0.00 | 0.00 | 0.00 | 42 | 1017.1 |
| 20260830152549 | 31 | 210 | 17.7 | 22.5 | 0.00 | 0.00 | 0.00 | 42 | 1017.2 |
| 20260830152048 | 31 | 198 | 6.4 | 12.9 | 0.00 | 0.00 | 0.00 | 43 | 1017.2 |
| 20260830151549 | 30 | 189 | 8.0 | 16.1 | 0.00 | 0.00 | 0.00 | 43 | 1017.3 |
| 20260830151044 | 30 | 232 | 9.7 | 11.3 | 0.00 | 0.00 | 0.00 | 43 | 1017.1 |
| 20260830150543 | 30 | 231 | 8.0 | 12.9 | 0.00 | 0.00 | 0.00 | 43 | 1017.1 |
| 20260830150037 | 30 | 208 | 11.3 | 16.1 | 0.00 | 0.00 | 0.00 | 44 | 1017.3 |
| 20260830145532 | 30 | 146 | 12.9 | 20.9 | 0.00 | 0.00 | 0.00 | 44 | 1017.1 |
| 20260830145027 | 30 | 192 | 8.0 | 11.3 | 0.00 | 0.00 | 0.00 | 44 | 1017.1 |
| 20260830144523 | 30 | 175 | 8.0 | 9.7 | 0.00 | 0.00 | 0.00 | 44 | 1017.3 |
| 20260830144019 | 29 | 190 | 12.9 | 16.1 | 0.00 | 0.00 | 0.00 | 45 | 1017.1 |
| 20260830143514 | 28 | 150 | 8.0 | 11.3 | 0.00 | 0.00 | 0.00 | 46 | 1017.1 |
| 20260830143012 | 28 | 189 | 17.7 | 24.1 | 0.00 | 0.00 | 0.00 | 46 | 1017.1 |
| 20260830142508 | 28 | 178 | 11.3 | 12.9 | 0.00 | 0.00 | 0.00 | 46 | 1017.1 |
| 20260830142003 | 28 | 207 | 11.3 | 22.5 | 0.00 | 0.00 | 0.00 | 47 | 1017.0 |
| 20260830141458 | 28 | 182 | 19.3 | 24.1 | 0.00 | 0.00 | 0.00 | 47 | 1017.1 |
| 20260830140953 | 27 | 251 | 12.9 | 14.5 | 0.00 | 0.00 | 0.00 | 48 | 1017.2 |
| 20260830140452 | 27 | 169 | 16.1 | 22.5 | 0.00 | 0.00 | 0.00 | 48 | 1017.2 |
| 20260830135951 | 27 | 190 | 9.7 | 12.9 | 0.00 | 0.00 | 0.00 | 49 | 1017.3 |
| 20260830135447 | 27 | 167 | 14.5 | 16.1 | 0.00 | 0.00 | 0.00 | 49 | 1017.2 |
| 20260830134942 | 27 | 195 | 9.7 | 11.3 | 0.00 | 0.00 | 0.00 | 49 | 1017.3 |
| 20260830134438 | 27 | 192 | 9.7 | 12.9 | 0.00 | 0.00 | 0.00 | 50 | 1017.1 |
| 20260830133933 | 27 | 82 | 4.8 | 6.4 | 0.00 | 0.00 | 0.00 | 50 | 1017.1 |
| 20260830133429 | 26 | 186 | 4.8 | 6.4 | 0.00 | 0.00 | 0.00 | 51 | 1017.1 |
| 20260830132924 | 26 | 123 | 6.4 | 6.4 | 0.00 | 0.00 | 0.00 | 51 | 1017.1 |
| 20260830132421 | 26 | 214 | 6.4 | 9.7 | 0.00 | 0.00 | 0.00 | 52 | 1017.1 |
| 20260830131920 | 26 | 167 | 6.4 | 9.7 | 0.00 | 0.00 | 0.00 | 52 | 1017.1 |
| 20260830131414 | 25 | 187 | 8.0 | 11.3 | 0.00 | 0.00 | 0.00 | 53 | 1017.1 |
| 20260830130914 | 25 | 181 | 6.4 | 9.7 | 0.00 | 0.00 | 0.00 | 53 | 1017.0 |
| 20260830130410 | 25 | 170 | 8.0 | 11.3 | 0.00 | 0.00 | 0.00 | 53 | 1016.8 |
| 20260830125908 | 25 | 200 | 8.0 | 11.3 | 0.00 | 0.00 | 0.00 | 53 | 1016.9 |
| 20260830125404 | 25 | 195 | 6.4 | 9.7 | 0.00 | 0.00 | 0.00 | 54 | 1017.1 |
| 20260830124902 | 25 | 152 | 8.0 | 9.7 | 0.00 | 0.00 | 0.00 | 54 | 1017.0 |
| 20260830124357 | 25 | 101 | 6.4 | 9.7 | 0.00 | 0.00 | 0.00 | 54 | 1016.9 |
| 20260830123853 | 25 | 199 | 8.0 | 11.3 | 0.00 | 0.00 | 0.00 | 54 | 1016.9 |
| 20260830123350 | 25 | 169 | 9.7 | 12.9 | 0.00 | 0.00 | 0.00 | 54 | 1016.8 |
| 20260830122847 | 25 | 274 | 3.2 | 4.8 | 0.00 | 0.00 | 0.00 | 55 | 1016.9 |
| 20260830122342 | 25 | 123 | 4.8 | 4.8 | 0.00 | 0.00 | 0.00 | 55 | 1016.8 |
| 20260830121837 | 25 | 142 | 4.8 | 4.8 | 0.00 | 0.00 | 0.00 | 55 | 1016.8 |
| 20260830121337 | 25 | 184 | 3.2 | 3.2 | 0.00 | 0.00 | 0.00 | 55 | 1016.8 |
| 20260830120832 | 25 | 124 | 9.7 | 11.3 | 0.00 | 0.00 | 0.00 | 55 | 1016.9 |
| 20260830120327 | 25 | 200 | 6.4 | 9.7 | 0.00 | 0.00 | 0.00 | 54 | 1016.9 |
| 20260830115825 | 25 | 352 | 3.2 | 4.8 | 0.00 | 0.00 | 0.00 | 54 | 1016.8 |